Time;durP1;ratioP1;P1;durP2;ratioP2;P2;SDS_P1;SDS_P2;PMS_P1;PMS_P2;Temp;Humidity;BMP_temperature;BMP_pressure;BME280_temperature;BME280_humidity;BME280_pressure;Samples;Min_cycle;Max_cycle;Signal;HPM_P1;HPM_P2
2023/10/14 00:00:33;;;;;;;20.83;7.65;;;;;;;;;;5005572;28;20034;-82
2023/10/14 00:03:18;;;;;;;15.73;7.57;;;;;;;;;;5017917;28;20040;-82
2023/10/14 00:05:44;;;;;;;21.58;7.35;;;;;;;;;;5019363;28;20030;-84
2023/10/14 00:08:12;;;;;;;17.90;7.00;;;;;;;;;;5018919;28;20037;-80
2023/10/14 00:10:39;;;;;;;17.08;7.50;;;;;;;;;;5002005;28;20120;-85
2023/10/14 00:13:10;;;;;;;17.35;7.55;;;;;;;;;;5019089;28;20045;-84
2023/10/14 00:15:39;;;;;;;19.65;6.30;;;;;;;;;;5004101;28;20045;-81
2023/10/14 00:18:11;;;;;;;15.15;5.95;;;;;;;;;;5004278;28;20033;-86
2023/10/14 00:20:40;;;;;;;13.27;6.03;;;;;;;;;;5018286;28;20033;-85
2023/10/14 00:23:06;;;;;;;20.05;6.28;;;;;;;;;;5020619;28;20037;-81
2023/10/14 00:25:33;;;;;;;11.70;5.45;;;;;;;;;;5017792;28;20054;-83
2023/10/14 00:28:06;;;;;;;19.50;5.38;;;;;;;;;;5003728;28;20041;-81
2023/10/14 00:30:34;;;;;;;18.55;5.65;;;;;;;;;;5018640;28;20041;-84
2023/10/14 00:33:00;;;;;;;14.73;5.60;;;;;;;;;;5016818;28;20037;-80
2023/10/14 00:35:27;;;;;;;13.73;5.45;;;;;;;;;;5007899;28;20038;-82
2023/10/14 00:38:08;;;;;;;9.23;5.18;;;;;;;;;;5020866;28;20044;-84
2023/10/14 00:40:37;;;;;;;14.65;5.18;;;;;;;;;;5004634;28;20049;-85
2023/10/14 00:43:04;;;;;;;14.75;4.93;;;;;;;;;;5029240;28;20037;-78
2023/10/14 00:45:30;;;;;;;14.07;5.85;;;;;;;;;;5025735;28;20021;-74
2023/10/14 00:47:59;;;;;;;13.65;6.03;;;;;;;;;;5049547;28;20040;-74
2023/10/14 00:50:35;;;;;;;10.07;5.07;;;;;;;;;;5047061;28;20029;-74
2023/10/14 00:53:05;;;;;;;12.38;5.65;;;;;;;;;;5046624;28;20028;-73
2023/10/14 00:58:28;;;;;;;13.38;5.05;;;;;;;;;;5046321;28;20041;-74
2023/10/14 01:00:57;;;;;;;17.55;5.05;;;;;;;;;;5046314;28;20141;-74
2023/10/14 01:03:23;;;;;;;17.45;5.32;;;;;;;;;;5031713;28;20069;-74
2023/10/14 01:05:49;;;;;;;13.05;4.25;;;;;;;;;;5048003;28;20056;-74
2023/10/14 01:08:15;;;;;;;13.05;6.13;;;;;;;;;;5048253;28;20037;-74
2023/10/14 01:10:42;;;;;;;17.40;5.70;;;;;;;;;;5048074;28;20037;-74
2023/10/14 01:13:14;;;;;;;9.05;4.50;;;;;;;;;;5032095;28;20036;-75
2023/10/14 01:15:46;;;;;;;11.73;4.05;;;;;;;;;;5046306;28;20021;-74
2023/10/14 01:18:14;;;;;;;10.10;3.90;;;;;;;;;;5047603;28;20139;-74
2023/10/14 01:20:42;;;;;;;10.27;3.80;;;;;;;;;;5046852;28;20033;-74
2023/10/14 01:23:17;;;;;;;15.18;4.25;;;;;;;;;;5048500;28;20033;-74
2023/10/14 01:25:53;;;;;;;10.57;3.63;;;;;;;;;;5029581;28;20059;-75
2023/10/14 01:28:26;;;;;;;14.48;4.63;;;;;;;;;;5047000;28;20038;-74
2023/10/14 01:30:55;;;;;;;15.07;5.38;;;;;;;;;;5047421;28;20063;-75
2023/10/14 01:33:25;;;;;;;16.73;5.07;;;;;;;;;;5045168;28;20038;-74
2023/10/14 01:35:54;;;;;;;23.98;6.03;;;;;;;;;;5031905;28;20022;-74
2023/10/14 01:38:23;;;;;;;17.67;5.20;;;;;;;;;;5033058;28;20033;-73
2023/10/14 01:40:49;;;;;;;16.83;4.38;;;;;;;;;;5049598;28;20206;-73
2023/10/14 01:43:16;;;;;;;8.13;4.35;;;;;;;;;;5047536;28;20083;-73
2023/10/14 01:45:48;;;;;;;11.20;5.20;;;;;;;;;;5034290;28;20061;-75
2023/10/14 01:48:14;;;;;;;6.18;4.43;;;;;;;;;;5049404;28;20013;-73
2023/10/14 01:50:46;;;;;;;11.95;4.88;;;;;;;;;;5049305;28;20028;-74
2023/10/14 01:53:18;;;;;;;10.02;5.20;;;;;;;;;;5051293;28;20088;-74
2023/10/14 01:55:45;;;;;;;8.00;4.65;;;;;;;;;;5032580;28;20046;-73
2023/10/14 01:58:20;;;;;;;17.77;5.28;;;;;;;;;;5032967;28;20048;-73
2023/10/14 02:00:46;;;;;;;11.40;4.78;;;;;;;;;;5048133;28;20021;-74
2023/10/14 02:03:12;;;;;;;8.77;4.30;;;;;;;;;;5032904;28;20022;-74
2023/10/14 02:05:40;;;;;;;10.68;4.55;;;;;;;;;;5046633;28;20036;-73
2023/10/14 02:08:13;;;;;;;14.82;5.32;;;;;;;;;;5033029;28;20022;-73
2023/10/14 02:10:46;;;;;;;8.50;4.20;;;;;;;;;;5036098;28;20038;-73
2023/10/14 02:13:13;;;;;;;11.02;4.00;;;;;;;;;;5049049;28;20014;-73
2023/10/14 02:15:39;;;;;;;13.48;3.70;;;;;;;;;;5048134;28;20037;-73
2023/10/14 02:18:05;;;;;;;10.13;4.55;;;;;;;;;;5029677;28;20036;-73
2023/10/14 02:20:38;;;;;;;8.15;3.35;;;;;;;;;;5047014;28;20061;-74
2023/10/14 02:23:05;;;;;;;8.30;3.75;;;;;;;;;;5033731;28;20022;-73
2023/10/14 02:25:33;;;;;;;13.18;3.55;;;;;;;;;;5030608;28;20029;-74
2023/10/14 02:27:58;;;;;;;4.85;1.95;;;;;;;;;;5029762;28;20018;-75
2023/10/14 02:30:32;;;;;;;4.20;0.75;;;;;;;;;;5028321;28;20048;-74
2023/10/14 02:33:00;;;;;;;5.13;1.45;;;;;;;;;;5033086;28;20014;-73
2023/10/14 02:35:30;;;;;;;1.75;0.50;;;;;;;;;;5049934;28;20018;-73
2023/10/14 02:38:00;;;;;;;4.40;0.57;;;;;;;;;;5049686;28;20079;-73
2023/10/14 02:40:26;;;;;;;1.25;0.65;;;;;;;;;;5032933;28;20018;-73
2023/10/14 02:42:57;;;;;;;1.80;0.50;;;;;;;;;;5047451;28;20021;-74
2023/10/14 02:45:27;;;;;;;1.85;0.47;;;17.40;99.90;;;;;;5052175;28;20025;-73
2023/10/14 02:48:01;;;;;;;0.55;0.38;;;15.00;99.90;;;;;;5040551;28;20013;-73
2023/10/14 02:50:31;;;;;;;12.38;0.70;;;14.60;99.90;;;;;;5036995;28;20052;-74
2023/10/14 02:53:06;;;;;;;2.33;0.50;;;14.50;99.90;;;;;;5053624;28;20017;-73
2023/10/14 02:56:04;;;;;;;2.33;0.50;;;14.40;99.90;;;;;;5044932;28;20025;-73
2023/10/14 02:58:20;;;;;;;5.88;0.47;;;14.40;99.90;;;;;;5049732;28;20044;-73
2023/10/14 03:00:49;;;;;;;1.40;0.10;;;14.30;99.90;;;;;;5048927;28;20203;-73
2023/10/14 03:03:16;;;;;;;2.10;0.47;;;14.20;99.90;;;;;;5048329;28;20038;-74
2023/10/14 03:08:10;;;;;;;5.55;0.55;;;14.20;99.90;;;;;;5049765;28;20037;-73
2023/10/14 03:10:59;;;;;;;1.65;0.30;;;14.10;99.90;;;;;;5037245;28;20085;-73
2023/10/14 03:13:29;;;;;;;3.10;0.45;;;14.10;99.90;;;;;;5049366;28;20602;-73
2023/10/14 03:15:55;;;;;;;1.43;0.60;;;14.10;99.90;;;;;;5047824;28;20035;-73
2023/10/14 03:18:30;;;;;;;1.53;0.30;;;14.10;99.90;;;;;;5049759;28;20030;-73
2023/10/14 03:23:25;;;;;;;1.23;0.40;;;;;;;;;;5048526;28;20017;-74
2023/10/14 03:26:12;;;;;;;2.27;0.90;;;;;;;;;;5046437;28;20041;-73
2023/10/14 03:28:38;;;;;;;3.83;0.70;;;;;;;;;;5029717;28;20136;-72
2023/10/14 03:31:14;;;;;;;3.77;1.63;;;;;;;;;;5048068;28;20042;-72
2023/10/14 03:33:43;;;;;;;2.88;0.47;;;;;;;;;;5045953;28;20029;-73
2023/10/14 03:36:15;;;;;;;1.70;0.50;;;;;;;;;;5046157;28;20241;-73
2023/10/14 03:38:41;;;;;;;10.85;1.48;;;;;;;;;;5046138;28;20029;-73
2023/10/14 03:44:23;;;;;;;5.67;0.77;;;;;;;;;;5047888;28;20030;-72
2023/10/14 03:46:31;;;;;;;2.10;0.70;;;;;;;;;;5039346;28;20030;-75
2023/10/14 03:48:57;;;;;;;4.97;1.60;;;;;;;;;;5032721;28;20045;-74
2023/10/14 03:51:27;;;;;;;7.07;1.07;;;;;;;;;;5047942;28;20014;-73
2023/10/14 03:54:06;;;;;;;8.00;2.00;;;;;;;;;;5047144;28;20027;-73
2023/10/14 03:56:34;;;;;;;6.63;1.83;;;;;;;;;;5048893;28;20041;-73
2023/10/14 03:59:01;;;;;;;9.13;1.60;;;;;;;;;;5047229;28;20150;-73
2023/10/14 04:01:34;;;;;;;5.80;1.40;;;;;;;;;;5031636;28;20017;-73
2023/10/14 04:04:14;;;;;;;3.60;1.43;;;;;;;;;;5049488;28;20018;-75
2023/10/14 04:06:47;;;;;;;10.23;2.33;;;;;;;;;;5049694;28;20031;-74
2023/10/14 04:09:22;;;;;;;11.43;1.73;;;;;;;;;;5049022;28;20026;-72
2023/10/14 04:11:48;;;;;;;16.27;2.23;;;;;;;;;;5050425;28;20060;-73
2023/10/14 04:14:14;;;;;;;11.63;1.80;;;;;;;;;;5050695;28;20025;-74
2023/10/14 04:19:44;;;;;;;25.48;2.88;;;;;;;;;;5049500;28;20045;-73
2023/10/14 04:22:31;;;;;;;13.40;1.93;;;;;;;;;;5049688;28;20041;-72
2023/10/14 04:30:16;;;;;;;17.23;2.13;;;;;;;;;;5049342;28;20029;-72
2023/10/14 04:35:31;;;;;;;15.70;2.87;;;;;;;;;;5049178;28;20018;-73
2023/10/14 04:38:01;;;;;;;17.70;2.47;;;;;;;;;;5047848;28;20017;-72
2023/10/14 04:45:52;;;;;;;17.87;3.63;;;;;;;;;;5016920;28;20034;-73
2023/10/14 04:48:35;;;;;;;19.47;2.70;;;;;;;;;;5036264;28;20141;-73
2023/10/14 04:51:15;;;;;;;19.57;2.87;;;;;;;;;;5047811;28;20033;-74
2023/10/14 04:53:43;;;;;;;16.77;3.47;;;;;;;;;;5047538;28;20028;-73
2023/10/14 04:56:21;;;;;;;16.47;2.73;;;;;;;;;;5049421;28;20006;-73
2023/10/14 04:58:47;;;;;;;22.67;3.87;;;;;;;;;;5047044;28;20037;-73
2023/10/14 05:01:17;;;;;;;16.83;2.93;;;;;;;;;;5050714;28;20040;-73
2023/10/14 05:03:50;;;;;;;16.47;3.60;;;;;;;;;;5046313;28;20025;-74
2023/10/14 05:06:16;;;;;;;16.30;2.60;;;;;;;;;;5033745;28;20041;-74
2023/10/14 05:08:45;;;;;;;19.67;3.37;;;;;;;;;;5047910;28;20029;-73
2023/10/14 05:11:18;;;;;;;23.00;2.93;;;;;;;;;;5050481;28;20037;-74
2023/10/14 05:13:44;;;;;;;12.03;2.87;;;;;;;;;;5033932;28;20040;-74
2023/10/14 05:16:21;;;;;;;18.37;2.43;;;;;;;;;;5040058;28;20032;-73
2023/10/14 05:19:01;;;;;;;20.27;3.20;;;;;;;;;;5051198;28;20056;-74
2023/10/14 05:21:42;;;;;;;14.23;3.37;;;;;;;;;;5049134;28;20076;-74
2023/10/14 05:24:09;;;;;;;24.40;3.37;;;;;;;;;;5052727;28;20027;-73
2023/10/14 05:26:47;;;;;;;22.67;2.77;;;;;;;;;;5035869;28;20025;-74
2023/10/14 05:29:17;;;;;;;18.17;2.37;;;;;;;;;;5050966;28;20018;-73
2023/10/14 05:31:43;;;;;;;21.73;3.07;;;;;;;;;;5035117;28;20083;-74
2023/10/14 05:34:09;;;;;;;19.43;2.57;;;14.00;99.90;;;;;;5052298;28;20032;-73
2023/10/14 05:36:36;;;;;;;9.27;2.40;;;12.20;99.90;;;;;;5038440;28;20022;-74
2023/10/14 05:39:02;;;;;;;16.30;1.90;;;12.20;99.90;;;;;;5051158;28;20044;-73
2023/10/14 05:41:32;;;;;;;20.93;3.57;;;12.10;99.90;;;;;;5033795;28;20019;-73
2023/10/14 05:43:57;;;;;;;11.80;2.23;;;12.10;99.90;;;;;;5051423;28;20032;-74
2023/10/14 05:46:25;;;;;;;15.00;2.50;;;12.00;99.90;;;;;;5036518;28;20030;-74
2023/10/14 05:48:53;;;;;;;21.30;1.90;;;11.90;99.90;;;;;;5052825;28;20036;-74
2023/10/14 05:51:22;;;;;;;20.30;4.03;;;11.90;99.90;;;;;;5051209;28;20005;-74
2023/10/14 05:53:49;;;;;;;20.97;2.73;;;11.80;99.90;;;;;;5034359;28;20010;-74
2023/10/14 05:56:14;;;;;;;12.77;3.10;;;11.80;99.90;;;;;;5050172;28;20049;-74
2023/10/14 05:58:48;;;;;;;18.00;3.30;;;11.80;99.90;;;;;;5053534;28;20057;-74
2023/10/14 06:01:16;;;;;;;18.13;3.93;;;11.70;99.90;;;;;;5050157;28;20022;-74
2023/10/14 06:03:42;;;;;;;20.37;3.10;;;11.70;99.90;;;;;;5048876;28;20180;-74
2023/10/14 06:06:14;;;;;;;13.00;2.50;;;11.70;99.90;;;;;;5035308;28;20040;-73
2023/10/14 06:08:41;;;;;;;13.35;2.42;;;11.70;99.90;;;;;;5051626;28;20037;-74
2023/10/14 06:11:10;;;;;;;22.37;3.70;;;11.70;99.90;;;;;;5035366;28;20021;-73
2023/10/14 06:13:35;;;;;;;23.00;3.60;;;11.70;99.90;;;;;;5050698;28;20021;-74
2023/10/14 06:16:09;;;;;;;19.07;3.67;;;11.70;99.90;;;;;;5053265;28;20028;-73
2023/10/14 06:18:40;;;;;;;11.87;2.87;;;11.70;99.90;;;;;;5036962;28;20097;-73
2023/10/14 06:21:08;;;;;;;17.33;4.17;;;11.70;99.90;;;;;;5053110;28;20014;-73
2023/10/14 06:23:39;;;;;;;20.00;3.10;;;11.70;99.90;;;;;;5035209;28;20065;-73
2023/10/14 06:26:09;;;;;;;17.33;3.73;;;11.70;99.90;;;;;;5050664;28;20040;-75
2023/10/14 06:28:37;;;;;;;16.47;3.03;;;11.70;99.90;;;;;;5051081;28;20072;-73
2023/10/14 06:31:05;;;;;;;18.10;2.87;;;11.60;99.90;;;;;;5036657;28;20014;-74
2023/10/14 06:33:31;;;;;;;17.30;3.10;;;11.70;99.90;;;;;;5034308;28;20029;-74
2023/10/14 06:36:03;;;;;;;17.63;2.63;;;11.60;99.90;;;;;;5050467;28;20078;-74
2023/10/14 06:38:29;;;;;;;12.48;2.58;;;11.70;99.90;;;;;;5050510;28;20048;-74
2023/10/14 06:41:01;;;;;;;14.53;2.60;;;11.70;99.90;;;;;;5050324;28;20034;-74
2023/10/14 06:43:33;;;;;;;21.17;2.90;;;11.70;99.90;;;;;;5033462;28;20228;-74
2023/10/14 06:45:59;;;;;;;16.75;2.17;;;11.60;99.90;;;;;;5033768;28;20053;-74
2023/10/14 06:48:25;;;;;;;16.10;3.50;;;11.70;99.90;;;;;;5050716;28;20181;-73
2023/10/14 06:50:54;;;;;;;15.43;3.87;;;11.70;99.90;;;;;;5051157;28;20026;-73
2023/10/14 06:53:20;;;;;;;20.63;3.47;;;11.70;99.90;;;;;;5048853;28;20033;-73
2023/10/14 06:55:46;;;;;;;14.43;2.27;;;11.70;99.90;;;;;;5033810;28;20030;-74
2023/10/14 06:58:18;;;;;;;14.20;2.70;;;11.70;99.90;;;;;;5052576;28;20034;-73
2023/10/14 07:00:44;;;;;;;13.53;2.50;;;11.70;99.90;;;;;;5047093;28;20014;-73
2023/10/14 07:03:13;;;;;;;15.60;2.30;;;11.70;99.90;;;;;;5037078;28;20071;-74
2023/10/14 07:05:43;;;;;;;16.20;2.27;;;11.70;99.90;;;;;;5050394;28;20028;-74
2023/10/14 07:08:12;;;;;;;9.03;2.67;;;11.80;99.90;;;;;;5035787;28;20021;-74
2023/10/14 07:10:38;;;;;;;15.00;2.87;;;11.70;99.90;;;;;;5050706;28;20207;-73
2023/10/14 07:13:04;;;;;;;14.23;2.70;;;11.70;99.90;;;;;;5048184;28;20045;-74
2023/10/14 07:15:34;;;;;;;10.13;2.17;;;11.70;99.90;;;;;;5049565;28;20037;-74
2023/10/14 07:18:02;;;;;;;22.37;3.20;;;11.80;99.90;;;;;;5035840;28;20045;-74
2023/10/14 07:20:31;;;;;;;10.30;2.60;;;11.70;99.90;;;;;;5048347;28;20018;-73
2023/10/14 07:23:01;;;;;;;19.23;2.30;;;11.80;99.90;;;;;;5034624;28;20103;-73
2023/10/14 07:25:35;;;;;;;12.43;2.20;;;11.70;99.90;;;;;;5033803;28;21095;-74
2023/10/14 07:28:06;;;;;;;12.43;2.23;;;11.80;99.90;;;;;;5048637;28;20040;-73
2023/10/14 07:30:34;;;;;;;17.23;2.17;;;11.80;99.90;;;;;;5047184;28;20033;-74
2023/10/14 07:33:06;;;;;;;14.90;2.20;;;11.80;99.90;;;;;;5052336;28;20071;-74
2023/10/14 07:35:34;;;;;;;15.80;2.97;;;11.80;99.90;;;;;;5049765;28;20017;-73
2023/10/14 07:38:00;;;;;;;13.13;2.50;;;11.80;99.90;;;;;;5051911;28;20288;-74
2023/10/14 07:40:31;;;;;;;15.03;2.00;;;11.80;99.90;;;;;;5050968;28;20053;-73
2023/10/14 07:43:10;;;;;;;20.13;2.97;;;11.90;99.90;;;;;;5035423;28;20089;-74
2023/10/14 07:45:42;;;;;;;13.97;2.40;;;11.90;99.90;;;;;;5050042;28;20053;-74
2023/10/14 07:48:09;;;;;;;16.60;3.72;;;12.00;99.90;;;;;;5051425;28;20025;-73
2023/10/14 07:50:39;;;;;;;22.10;2.97;;;12.00;99.90;;;;;;5048178;28;20045;-74
2023/10/14 07:53:08;;;;;;;13.13;2.03;;;12.00;99.90;;;;;;5032297;28;20021;-73
2023/10/14 07:55:49;;;;;;;11.83;2.20;;;12.00;99.90;;;;;;5032846;28;20017;-73
2023/10/14 07:58:16;;;;;;;10.83;2.33;;;12.00;99.90;;;;;;5048379;28;20036;-73
2023/10/14 08:00:50;;;;;;;14.53;2.40;;;12.00;99.90;;;;;;5031575;28;20021;-73
2023/10/14 08:03:22;;;;;;;16.53;2.97;;;12.10;99.90;;;;;;5049587;28;20101;-74
2023/10/14 08:05:53;;;;;;;16.15;2.33;;;12.20;99.90;;;;;;5048889;28;20100;-74
2023/10/14 08:08:19;;;;;;;20.73;3.20;;;12.20;99.90;;;;;;5047223;28;20041;-77
2023/10/14 08:10:49;;;;;;;11.00;2.50;;;12.10;99.90;;;;;;5050564;28;20042;-74
2023/10/14 08:13:18;;;;;;;14.27;2.63;;;12.20;99.90;;;;;;5074077;22;20049;-74
2023/10/14 08:15:50;;;;;;;16.27;2.17;;;12.30;99.90;;;;;;5058901;28;20016;-74
2023/10/14 08:18:19;;;;;;;15.48;2.60;;;12.20;99.90;;;;;;5039867;28;20076;-73
2023/10/14 08:20:45;;;;;;;19.10;2.67;;;12.20;99.90;;;;;;5052701;28;20045;-74
2023/10/14 08:23:12;;;;;;;12.47;2.10;;;12.20;99.90;;;;;;5052756;28;20057;-73
2023/10/14 08:25:39;;;;;;;13.10;2.70;;;12.20;99.90;;;;;;5038473;28;20040;-74
2023/10/14 08:28:10;;;;;;;20.90;2.93;;;12.20;99.90;;;;;;5055556;28;20013;-73
2023/10/14 08:30:45;;;;;;;14.27;2.85;;;12.20;99.90;;;;;;5038659;28;20052;-73
2023/10/14 08:33:18;;;;;;;15.17;2.27;;;12.20;99.90;;;;;;5041051;28;20021;-73
2023/10/14 08:35:44;;;;;;;17.53;3.00;;;12.20;99.90;;;;;;5038368;28;20021;-73
2023/10/14 08:38:17;;;;;;;9.07;2.40;;;12.20;99.90;;;;;;5057037;28;20033;-74
2023/10/14 08:40:49;;;;;;;20.88;3.20;;;12.30;99.90;;;;;;5055837;28;20519;-73
2023/10/14 08:43:19;;;;;;;23.40;3.03;;;12.30;99.90;;;;;;5053057;28;20052;-73
2023/10/14 08:45:48;;;;;;;12.77;2.33;;;12.30;99.90;;;;;;5037107;28;20037;-74
2023/10/14 08:48:23;;;;;;;12.83;2.57;;;12.40;99.90;;;;;;5053157;28;20021;-73
2023/10/14 08:50:52;;;;;;;11.80;2.10;;;12.40;99.90;;;;;;5038193;28;20029;-74
2023/10/14 08:53:21;;;;;;;11.20;2.60;;;12.40;99.90;;;;;;5038786;28;20037;-74
2023/10/14 08:55:48;;;;;;;9.53;1.73;;;12.50;99.90;;;;;;5037924;28;20060;-73
2023/10/14 08:58:13;;;;;;;8.57;2.17;;;12.50;99.90;;;;;;5037945;28;20052;-73
2023/10/14 09:00:40;;;;;;;10.60;2.33;;;12.40;99.90;;;;;;5037655;28;20014;-73
2023/10/14 09:03:07;;;;;;;14.13;2.20;;;12.60;99.90;;;;;;5036558;28;20025;-72
2023/10/14 09:05:40;;;;;;;11.00;2.63;;;12.60;99.90;;;;;;5036940;28;20017;-74
2023/10/14 09:08:10;;;;;;;24.47;3.57;;;12.60;99.90;;;;;;5051880;28;20025;-74
2023/10/14 09:10:36;;;;;;;12.87;2.43;;;12.70;99.90;;;;;;5037759;28;20042;-73
2023/10/14 09:13:09;;;;;;;11.73;2.70;;;12.70;99.90;;;;;;5036937;28;20018;-73
2023/10/14 09:15:39;;;;;;;11.50;2.65;;;12.80;99.90;;;;;;5036020;28;20014;-73
2023/10/14 09:18:10;;;;;;;10.37;2.23;;;12.90;99.90;;;;;;5051776;28;20026;-76
2023/10/14 09:20:38;;;;;;;13.63;3.73;;;13.00;99.90;;;;;;5053767;28;20089;-73
2023/10/14 09:23:18;;;;;;;19.00;3.27;;;13.00;99.90;;;;;;5056141;28;20218;-73
2023/10/14 09:25:44;;;;;;;16.80;2.70;;;13.00;99.90;;;;;;5039674;28;20048;-73
2023/10/14 09:28:11;;;;;;;13.53;2.93;;;13.10;99.90;;;;;;5056498;28;20014;-73
2023/10/14 09:30:44;;;;;;;14.27;2.70;;;13.10;99.90;;;;;;5037083;28;20029;-73
2023/10/14 09:33:15;;;;;;;21.17;2.63;;;13.10;99.90;;;;;;5040943;28;20013;-73
2023/10/14 09:35:49;;;;;;;8.70;2.00;;;13.10;99.90;;;;;;5040229;28;20018;-74
2023/10/14 09:38:22;;;;;;;8.40;2.10;;;13.10;99.90;;;;;;5041318;28;20033;-73
2023/10/14 09:40:57;;;;;;;17.40;2.58;;;13.10;99.90;;;;;;5056484;28;20032;-73
2023/10/14 09:43:29;;;;;;;11.63;2.83;;;13.10;99.90;;;;;;5052852;28;20120;-74
2023/10/14 09:45:57;;;;;;;10.00;1.92;;;13.10;99.90;;;;;;5057048;28;20461;-73
2023/10/14 09:48:25;;;;;;;15.80;2.40;;;13.00;99.90;;;;;;5055757;28;20026;-73
2023/10/14 09:50:54;;;;;;;11.67;1.87;;;13.10;99.90;;;;;;5036686;28;20024;-74
2023/10/14 09:53:27;;;;;;;13.37;2.37;;;13.10;99.90;;;;;;5039233;28;20010;-73
2023/10/14 09:56:07;;;;;;;19.65;3.35;;;13.10;99.90;;;;;;5038931;28;20024;-74
2023/10/14 09:58:35;;;;;;;10.93;2.10;;;13.20;99.90;;;;;;5038885;28;20189;-73
2023/10/14 10:01:05;;;;;;;11.93;2.37;;;13.20;99.90;;;;;;5057613;28;20044;-73
2023/10/14 10:03:44;;;;;;;14.73;2.47;;;13.10;99.90;;;;;;5040111;28;20036;-73
2023/10/14 10:06:47;;;;;;;15.00;3.27;;;13.10;99.90;;;;;;5041561;28;20052;-74
2023/10/14 10:09:52;;;;;;;14.20;2.87;;;13.10;99.90;;;;;;5057694;28;20025;-73
2023/10/14 10:12:20;;;;;;;13.27;2.73;;;13.10;99.90;;;;;;5057322;28;20116;-74
2023/10/14 10:14:57;;;;;;;14.47;1.97;;;13.20;99.90;;;;;;5059594;28;20013;-73
2023/10/14 10:17:24;;;;;;;12.20;1.70;;;13.20;99.90;;;;;;5059364;28;20124;-73
2023/10/14 10:20:16;;;;;;;13.02;2.40;;;13.30;99.90;;;;;;5045715;28;21307;-73
2023/10/14 10:22:44;;;;;;;;;;;13.40;99.90;;;;;;5043302;28;20017;-73
2023/10/14 10:25:14;;;;;;;10.50;2.40;;;13.30;99.90;;;;;;5042249;28;19908;-74
2023/10/14 10:27:41;;;;;;;15.85;2.97;;;13.40;99.90;;;;;;5040696;28;20013;-74
2023/10/14 10:30:11;;;;;;;10.70;1.92;;;13.40;99.90;;;;;;5056636;28;20029;-73
2023/10/14 10:32:38;;;;;;;9.65;1.80;;;13.40;99.90;;;;;;5060105;28;20032;-74
2023/10/14 10:35:06;;;;;;;20.13;2.53;;;13.50;99.90;;;;;;5039129;28;20041;-73
2023/10/14 10:37:55;;;;;;;11.02;1.73;;;13.50;99.90;;;;;;5056656;28;20029;-73
2023/10/14 10:40:28;;;;;;;16.25;2.72;;;13.60;99.90;;;;;;5039149;28;20033;-74
2023/10/14 10:43:01;;;;;;;14.65;2.63;;;13.70;99.90;;;;;;5039403;28;20093;-74
2023/10/14 10:45:31;;;;;;;9.68;2.55;;;13.80;99.90;;;;;;5056803;28;20033;-73
2023/10/14 10:47:59;;;;;;;16.67;2.65;;;13.90;99.90;;;;;;5056686;28;20067;-73
2023/10/14 10:50:36;;;;;;;13.60;2.65;;;14.00;99.90;;;;;;5041213;28;20013;-75
2023/10/14 10:53:07;;;;;;;14.25;2.25;;;13.90;99.90;;;;;;5056312;28;20033;-74
2023/10/14 10:55:42;;;;;;;19.97;2.93;;;13.80;99.90;;;;;;5055643;28;20032;-73
2023/10/14 10:58:11;;;;;;;11.88;2.28;;;13.80;99.90;;;;;;5041164;28;20044;-74
2023/10/14 11:00:38;;;;;;;8.45;1.52;;;13.80;99.90;;;;;;5037441;28;20025;-73
2023/10/14 11:03:13;;;;;;;12.80;1.90;;;13.80;99.90;;;;;;5057094;28;20017;-73
2023/10/14 11:05:44;;;;;;;14.27;2.70;;;13.70;99.90;;;;;;5056085;28;20013;-73
2023/10/14 11:08:10;;;;;;;11.82;1.92;;;13.70;99.90;;;;;;5037885;28;21274;-74
2023/10/14 11:10:44;;;;;;;8.57;1.38;;;13.70;99.90;;;;;;5040875;28;20097;-73
2023/10/14 11:13:11;;;;;;;10.50;1.70;;;13.60;99.90;;;;;;5043345;28;20044;-73
2023/10/14 11:15:40;;;;;;;13.25;2.20;;;13.50;99.90;;;;;;5057678;28;20037;-74
2023/10/14 11:18:09;;;;;;;14.82;2.85;;;13.50;99.90;;;;;;5038527;28;20045;-74
2023/10/14 11:20:41;;;;;;;11.90;2.10;;;13.60;99.90;;;;;;5056764;28;20121;-74
2023/10/14 11:23:11;;;;;;;7.47;1.83;;;13.60;99.90;;;;;;5052592;28;20025;-74
2023/10/14 11:25:41;;;;;;;14.65;2.20;;;13.60;99.90;;;;;;5039921;28;20034;-74
2023/10/14 11:28:14;;;;;;;16.08;2.50;;;13.60;99.90;;;;;;5057242;28;20048;-74
2023/10/14 11:30:46;;;;;;;18.77;2.45;;;13.60;99.90;;;;;;5036068;28;20048;-74
2023/10/14 11:33:14;;;;;;;16.30;2.78;;;13.60;99.90;;;;;;5038589;28;20028;-73
2023/10/14 11:35:40;;;;;;;12.45;1.52;;;13.60;99.90;;;;;;5055588;28;20026;-74
2023/10/14 11:38:13;;;;;;;9.60;1.88;;;13.60;99.90;;;;;;5038707;28;20029;-74
2023/10/14 11:40:45;;;;;;;8.77;1.83;;;13.70;99.90;;;;;;5057321;28;20056;-74
2023/10/14 11:43:11;;;;;;;13.82;2.65;;;13.70;99.90;;;;;;5055227;28;20025;-74
2023/10/14 11:45:43;;;;;;;11.45;2.03;;;13.80;99.90;;;;;;5039180;28;20037;-73
2023/10/14 11:48:36;;;;;;;10.40;1.95;;;13.80;99.90;;;;;;5037420;28;20085;-74
2023/10/14 11:51:03;;;;;;;13.65;2.03;;;13.80;99.90;;;;;;5028087;28;20112;-73
2023/10/14 11:53:32;;;;;;;11.43;1.67;;;13.90;99.90;;;;;;5057300;28;20049;-74
2023/10/14 11:56:01;;;;;;;12.25;1.90;;;14.00;99.90;;;;;;5054888;28;20018;-74
2023/10/14 11:58:37;;;;;;;5.72;1.40;;;14.00;99.90;;;;;;5056091;28;20108;-74
2023/10/14 12:01:06;;;;;;;12.32;1.50;;;14.20;99.90;;;;;;5055676;28;20036;-74
2023/10/14 12:03:31;;;;;;;5.30;1.60;;;14.30;99.90;;;;;;5037854;28;20014;-75
2023/10/14 12:05:59;;;;;;;9.80;2.15;;;14.30;99.90;;;;;;5058676;28;20046;-74
2023/10/14 12:08:32;;;;;;;10.40;1.70;;;14.40;99.90;;;;;;5039477;28;20021;-75
2023/10/14 12:11:03;;;;;;;6.70;1.58;;;14.30;99.90;;;;;;5052238;28;20057;-74
2023/10/14 12:13:30;;;;;;;11.55;1.40;;;14.20;99.90;;;;;;5039031;28;20029;-74
2023/10/14 12:15:55;;;;;;;14.07;3.05;;;14.00;99.90;;;;;;5056195;28;20029;-74
2023/10/14 12:18:21;;;;;;;8.10;1.73;;;14.00;99.90;;;;;;5039032;28;20025;-74
2023/10/14 12:20:48;;;;;;;9.57;1.70;;;14.00;99.90;;;;;;5039423;28;20031;-74
2023/10/14 12:23:19;;;;;;;18.10;2.28;;;14.10;99.90;;;;;;5039480;28;20056;-74
2023/10/14 12:25:49;;;;;;;8.00;1.17;;;14.10;99.90;;;;;;5038816;28;20045;-74
2023/10/14 12:28:25;;;;;;;4.82;1.13;;;14.20;99.90;;;;;;5056963;28;20075;-74
2023/10/14 12:30:56;;;;;;;9.15;1.70;;;14.10;99.90;;;;;;5057228;28;20017;-74
2023/10/14 12:33:24;;;;;;;8.60;2.05;;;14.00;99.90;;;;;;5039961;28;20184;-73
2023/10/14 12:35:52;;;;;;;7.50;1.38;;;14.00;99.90;;;;;;5038249;28;20032;-75
2023/10/14 12:38:26;;;;;;;12.23;1.42;;;14.00;99.90;;;;;;5037864;28;20091;-74
2023/10/14 12:40:53;;;;;;;7.60;1.30;;;14.10;99.90;;;;;;5037429;28;20025;-74
2023/10/14 12:43:28;;;;;;;10.88;1.63;;;14.20;99.90;;;;;;5037411;28;20044;-74
2023/10/14 12:46:14;;;;;;;12.30;1.60;;;14.20;99.90;;;;;;5039120;28;20052;-74
2023/10/14 12:48:46;;;;;;;10.40;1.52;;;14.20;99.90;;;;;;5054057;28;20029;-74
2023/10/14 12:51:25;;;;;;;7.22;1.30;;;14.10;99.90;;;;;;5037025;28;20032;-74
2023/10/14 12:53:57;;;;;;;6.95;1.77;;;14.10;99.90;;;;;;5054573;28;20037;-74
2023/10/14 12:56:26;;;;;;;10.73;2.20;;;14.00;99.90;;;;;;5035126;28;20097;-73
2023/10/14 12:58:52;;;;;;;9.90;1.70;;;14.00;99.90;;;;;;5038800;28;20052;-74
2023/10/14 13:01:20;;;;;;;8.60;1.35;;;14.10;99.90;;;;;;5051399;28;20042;-74
2023/10/14 13:03:52;;;;;;;10.40;2.97;;;14.10;99.90;;;;;;5053061;28;20048;-74
2023/10/14 13:06:24;;;;;;;7.38;1.67;;;14.20;99.90;;;;;;5052865;28;20032;-74
2023/10/14 13:08:50;;;;;;;8.77;2.00;;;14.40;99.90;;;;;;5037807;28;20024;-76
2023/10/14 13:11:19;;;;;;;9.93;1.58;;;14.90;99.90;;;;;;5038524;28;20038;-73
2023/10/14 13:13:52;;;;;;;18.17;2.35;;;16.40;99.90;;;;;;5034564;28;20080;-74
2023/10/14 13:16:22;;;;;;;8.60;1.63;;;18.00;99.90;;;;;;5038592;28;20097;-74
2023/10/14 13:18:49;;;;;;;10.65;2.10;;;18.50;99.90;;;;;;5038100;28;20037;-75
2023/10/14 13:21:18;;;;;;;6.65;1.70;;;18.80;98.50;;;;;;5036067;28;20092;-74
2023/10/14 13:23:44;;;;;;;7.13;1.20;;;18.80;97.80;;;;;;5054612;28;20030;-73
2023/10/14 13:26:10;;;;;;;9.48;1.98;;;18.00;96.70;;;;;;5038086;28;20105;-74
2023/10/14 13:28:43;;;;;;;8.90;1.40;;;16.90;98.30;;;;;;5037751;28;20031;-75
2023/10/14 13:31:12;;;;;;;7.45;1.58;;;16.10;99.90;;;;;;5037538;28;20012;-74
2023/10/14 13:33:38;;;;;;;10.80;1.52;;;15.40;99.90;;;;;;5041729;28;20052;-74
2023/10/14 13:36:09;;;;;;;6.68;1.40;;;15.00;99.90;;;;;;5039730;28;20033;-74
2023/10/14 13:38:39;;;;;;;5.72;0.93;;;14.70;99.90;;;;;;5059017;28;20037;-75
2023/10/14 13:41:05;;;;;;;5.00;1.05;;;14.50;99.40;;;;;;5058545;28;20014;-74
2023/10/14 13:43:33;;;;;;;6.40;1.67;;;14.80;98.20;;;;;;5059375;28;20056;-75
2023/10/14 13:45:59;;;;;;;7.28;1.33;;;15.50;98.00;;;;;;5040250;28;20030;-74
2023/10/14 13:48:28;;;;;;;6.63;1.42;;;15.80;97.90;;;;;;5057391;28;20026;-74
2023/10/14 13:50:54;;;;;;;5.97;1.10;;;15.50;98.50;;;;;;5041538;28;20005;-75
2023/10/14 13:53:21;;;;;;;4.97;1.30;;;15.20;99.70;;;;;;5040352;28;20029;-74
2023/10/14 13:55:54;;;;;;;6.75;1.20;;;14.90;99.90;;;;;;5058017;28;20022;-74
2023/10/14 13:58:21;;;;;;;;;;;14.80;99.90;;;;;;5059717;28;20037;-75